createdAt,value
2019-03-21T00:02:11.534Z,102721.67
2019-03-21T00:04:44.111Z,102725.61
2019-03-21T00:07:16.088Z,102726.92
2019-03-21T00:10:16.599Z,102722.50
2019-03-21T00:12:49.095Z,102724.23
2019-03-21T00:15:32.062Z,102717.66
2019-03-21T00:18:09.757Z,102707.11
2019-03-21T00:20:41.858Z,102712.33
2019-03-21T00:23:14.045Z,102713.16
2019-03-21T00:25:46.107Z,102714.61
2019-03-21T00:28:18.329Z,102713.59
2019-03-21T00:30:50.298Z,102724.48
2019-03-21T00:33:22.658Z,102723.58
2019-03-21T00:35:55.091Z,102725.23
2019-03-21T00:38:27.745Z,102723.54
2019-03-21T00:40:59.694Z,102723.80
2019-03-21T00:43:31.691Z,102729.62
2019-03-21T00:46:03.834Z,102722.11
2019-03-21T00:48:35.959Z,102731.72
2019-03-21T00:51:08.107Z,102736.11
2019-03-21T00:53:40.748Z,102734.87
2019-03-21T00:56:12.587Z,102728.97
2019-03-21T00:58:44.976Z,102723.84
2019-03-21T01:01:17.144Z,102724.55
2019-03-21T01:03:49.785Z,102729.39
2019-03-21T01:06:21.983Z,102727.09
2019-03-21T01:08:54.053Z,102724.55
2019-03-21T01:11:27.156Z,102725.41
2019-03-21T01:13:59.074Z,102719.29
2019-03-21T01:16:31.144Z,102719.09
2019-03-21T01:19:03.306Z,102707.69
2019-03-21T01:21:36.491Z,102716.58
2019-03-21T01:24:10.059Z,102713.02
2019-03-21T01:26:42.000Z,102714.74
2019-03-21T01:29:14.287Z,102712.45
2019-03-21T01:31:46.441Z,102704.69
2019-03-21T01:34:18.447Z,102713.51
2019-03-21T01:36:50.501Z,102706.75
2019-03-21T01:39:22.375Z,102700.52
2019-03-21T01:41:54.487Z,102694.80
2019-03-21T01:44:27.491Z,102701.83
2019-03-21T01:46:59.617Z,102690.34
2019-03-21T01:49:31.823Z,102699.12
2019-03-21T01:52:03.705Z,102695.59
2019-03-21T01:54:37.113Z,102704.33
2019-03-21T01:57:08.986Z,102689.44
2019-03-21T01:59:41.391Z,102699.38
2019-03-21T02:02:13.474Z,102691.87
2019-03-21T02:04:45.556Z,102686.16
2019-03-21T02:07:17.537Z,102692.23
2019-03-21T02:09:49.544Z,102690.36
2019-03-21T02:12:23.645Z,102693.09
2019-03-21T02:14:56.036Z,102690.80
2019-03-21T02:17:27.980Z,102690.36
2019-03-21T02:20:00.337Z,102684.16
2019-03-21T02:22:32.704Z,102681.04
2019-03-21T02:25:05.183Z,102673.09
2019-03-21T02:27:37.533Z,102683.13
2019-03-21T02:30:12.118Z,102678.41
2019-03-21T02:32:44.186Z,102668.69
2019-03-21T02:35:16.097Z,102666.52
2019-03-21T02:37:48.944Z,102670.91
2019-03-21T02:40:21.997Z,102670.46
2019-03-21T02:42:54.219Z,102668.95
2019-03-21T02:45:26.243Z,102668.95
2019-03-21T02:47:58.202Z,102671.94
2019-03-21T02:50:32.373Z,102673.00
2019-03-21T02:53:04.566Z,102676.83
2019-03-21T02:55:36.586Z,102682.61
2019-03-21T02:58:08.711Z,102684.70
2019-03-21T03:00:40.567Z,102680.72
2019-03-21T03:03:12.645Z,102686.09
2019-03-21T03:05:45.002Z,102689.12
2019-03-21T03:08:16.960Z,102688.80
2019-03-21T03:10:50.709Z,102688.84
2019-03-21T03:13:23.008Z,102687.98
2019-03-21T03:15:55.186Z,102688.84
2019-03-21T03:18:27.321Z,102689.20
2019-03-21T03:21:00.802Z,102688.47
2019-03-21T03:23:32.996Z,102688.02
2019-03-21T03:26:04.960Z,102693.68
2019-03-21T03:28:37.118Z,102697.25
2019-03-21T03:31:09.468Z,102701.19
2019-03-21T03:33:41.681Z,102700.77
2019-03-21T03:36:13.878Z,102701.23
2019-03-21T03:38:46.118Z,102700.81
2019-03-21T03:41:18.104Z,102703.77
2019-03-21T03:43:50.182Z,102702.34
2019-03-21T03:46:22.727Z,102710.12
2019-03-21T03:48:54.563Z,102701.31
2019-03-21T03:51:26.719Z,102707.50
2019-03-21T03:53:59.900Z,102708.77
2019-03-21T03:56:32.134Z,102706.93
2019-03-21T03:59:04.690Z,102713.49
2019-03-21T04:01:36.962Z,102719.16
2019-03-21T04:04:09.176Z,102720.75
2019-03-21T04:06:41.356Z,102726.50
2019-03-21T04:09:13.159Z,102723.05
2019-03-21T04:11:45.189Z,102721.62
2019-03-21T04:14:17.525Z,102722.06
2019-03-21T04:16:49.759Z,102731.83
2019-03-21T04:19:22.010Z,102735.19
2019-03-21T04:21:53.979Z,102730.59
2019-03-21T04:24:25.832Z,102736.55
2019-03-21T04:26:58.072Z,102735.69
2019-03-21T04:29:30.287Z,102735.64
2019-03-21T04:32:02.486Z,102741.30
2019-03-21T04:34:34.472Z,102751.34
2019-03-21T04:37:06.638Z,102742.12
2019-03-21T04:39:38.896Z,102744.30
2019-03-21T04:42:11.312Z,102751.23
2019-03-21T04:44:44.491Z,102756.80
2019-03-21T04:47:16.719Z,102759.05
2019-03-21T04:49:50.074Z,102757.79
2019-03-21T04:52:22.462Z,102760.38
2019-03-21T04:54:54.738Z,102765.04
2019-03-21T04:57:27.080Z,102762.95
2019-03-21T05:00:00.049Z,102769.97
2019-03-21T05:02:32.206Z,102769.60
2019-03-21T05:05:04.201Z,102769.02
2019-03-21T05:07:36.420Z,102770.45
2019-03-21T05:10:10.075Z,102781.91
2019-03-21T05:12:42.283Z,102779.81
2019-03-21T05:15:16.782Z,102787.61
2019-03-21T05:17:49.633Z,102779.73
2019-03-21T05:20:23.985Z,102788.30
2019-03-21T05:22:56.260Z,102797.75
2019-03-21T05:25:28.533Z,102792.72
2019-03-21T05:28:00.444Z,102793.91
2019-03-21T05:30:35.803Z,102799.16
2019-03-21T05:33:07.621Z,102798.34
2019-03-21T05:35:39.862Z,102796.22
2019-03-21T05:38:11.953Z,102801.64
2019-03-21T05:40:44.098Z,102804.22
2019-03-21T05:43:19.091Z,102808.24
2019-03-21T05:45:51.259Z,102809.31
2019-03-21T05:48:23.583Z,102809.00
2019-03-21T05:50:55.699Z,102812.16
2019-03-21T05:53:27.896Z,102814.95
2019-03-21T05:56:00.293Z,102811.79
2019-03-21T05:58:32.652Z,102812.00
2019-03-21T06:01:04.931Z,102810.41
2019-03-21T06:03:49.998Z,102803.55
2019-03-21T06:06:33.506Z,102802.81
2019-03-21T06:09:08.465Z,102806.84
2019-03-21T06:11:41.804Z,102812.14
2019-03-21T06:14:13.859Z,102810.41
2019-03-21T06:16:45.981Z,102812.92
2019-03-21T06:20:06.943Z,102816.37
2019-03-21T06:23:03.759Z,102817.05
2019-03-21T06:25:56.937Z,102824.61
2019-03-21T06:28:28.853Z,102828.14
2019-03-21T06:31:00.958Z,102823.88
2019-03-21T06:33:32.841Z,102827.64
2019-03-21T06:36:05.143Z,102827.46
2019-03-21T06:38:37.042Z,102831.98
2019-03-21T06:41:09.326Z,102838.88
2019-03-21T06:43:41.306Z,102830.69
2019-03-21T06:46:13.495Z,102841.59
2019-03-21T06:48:45.877Z,102843.47
2019-03-21T06:51:18.844Z,102843.77
2019-03-21T06:53:50.903Z,102847.84
2019-03-21T06:56:23.162Z,102852.30
2019-03-21T06:58:55.336Z,102852.02
2019-03-21T07:01:27.378Z,102847.25
2019-03-21T07:04:06.929Z,102847.33
2019-03-21T07:06:33.152Z,102846.87
2019-03-21T07:09:07.055Z,102849.55
2019-03-21T07:11:38.959Z,102855.52
2019-03-21T07:14:10.927Z,102856.16
2019-03-21T07:16:42.773Z,102863.44
2019-03-21T07:19:14.603Z,102864.68
2019-03-21T07:21:46.510Z,102856.19
2019-03-21T07:24:18.651Z,102859.80
2019-03-21T07:26:50.833Z,102855.08
2019-03-21T07:29:23.084Z,102851.45
2019-03-21T07:31:55.153Z,102851.80
2019-03-21T07:34:29.224Z,102864.25
2019-03-21T07:37:01.180Z,102852.59
2019-03-21T07:39:33.174Z,102848.81
2019-03-21T07:42:05.422Z,102863.86
2019-03-21T07:44:37.575Z,102857.02
2019-03-21T07:47:13.019Z,102863.69
2019-03-21T07:49:43.227Z,102861.01
2019-03-21T07:52:15.248Z,102862.62
2019-03-21T07:54:47.446Z,102860.22
2019-03-21T07:57:19.298Z,102856.09
2019-03-21T07:59:51.419Z,102862.59
2019-03-21T08:02:24.539Z,102857.50
2019-03-21T08:04:56.631Z,102867.88
2019-03-21T08:07:28.910Z,102871.56
2019-03-21T08:10:01.140Z,102866.61
2019-03-21T08:12:34.311Z,102854.09
2019-03-21T08:15:07.687Z,102863.71
2019-03-21T08:17:39.800Z,102856.37
2019-03-21T08:20:13.195Z,102848.95
2019-03-21T08:22:45.619Z,102841.33
2019-03-21T08:25:17.679Z,102843.54
2019-03-21T08:27:51.803Z,102845.73
2019-03-21T08:30:32.841Z,102848.85
2019-03-21T08:33:05.600Z,102850.87
2019-03-21T08:35:37.931Z,102865.03
2019-03-21T08:38:09.986Z,102866.75
2019-03-21T08:40:42.732Z,102867.24
2019-03-21T08:43:14.993Z,102863.44
2019-03-21T08:45:47.110Z,102848.69
2019-03-21T08:48:19.453Z,102850.66
2019-03-21T08:50:51.380Z,102847.60
2019-03-21T08:53:23.409Z,102859.55
2019-03-21T08:55:55.581Z,102847.95
2019-03-21T08:58:27.525Z,102853.94
2019-03-21T09:00:59.831Z,102848.30
2019-03-21T09:03:31.970Z,102843.70
2019-03-21T09:06:04.167Z,102837.75
2019-03-21T09:08:36.213Z,102838.58
2019-03-21T09:11:08.920Z,102838.16
2019-03-21T09:13:41.107Z,102839.95
2019-03-21T09:16:13.184Z,102839.05
2019-03-21T09:18:45.294Z,102850.08
2019-03-21T09:21:19.907Z,102852.06
2019-03-21T09:23:50.936Z,102851.52
2019-03-21T09:26:23.271Z,102854.13
2019-03-21T09:28:55.394Z,102849.08
2019-03-21T09:31:29.049Z,102855.37
2019-03-21T09:34:01.046Z,102850.29
2019-03-21T09:36:32.975Z,102842.45
2019-03-21T09:39:07.845Z,102852.14
2019-03-21T09:41:40.611Z,102847.63
2019-03-21T09:44:12.694Z,102849.68
2019-03-21T09:46:50.722Z,102854.23
2019-03-21T09:49:18.613Z,102852.48
2019-03-21T09:51:50.614Z,102852.22
2019-03-21T09:54:22.868Z,102849.67
2019-03-21T09:56:54.831Z,102846.63
2019-03-21T09:59:27.319Z,102845.20
2019-03-21T10:01:59.614Z,102845.16
2019-03-21T10:04:31.799Z,102842.11
2019-03-21T10:07:03.983Z,102850.45
2019-03-21T10:09:36.107Z,102838.64
2019-03-21T10:12:08.361Z,102841.70
2019-03-21T10:14:40.367Z,102840.86
2019-03-21T10:17:12.515Z,102839.95
2019-03-21T10:19:44.760Z,102831.81
2019-03-21T10:22:16.743Z,102834.55
2019-03-21T10:24:49.056Z,102833.31
2019-03-21T10:27:21.195Z,102830.92
2019-03-21T10:29:53.276Z,102845.29
2019-03-21T10:32:25.313Z,102847.39
2019-03-21T10:34:57.586Z,102842.84
2019-03-21T10:37:29.766Z,102850.08
2019-03-21T10:40:01.960Z,102840.88
2019-03-21T10:42:33.809Z,102840.42
2019-03-21T10:45:06.384Z,102836.88
2019-03-21T10:47:38.748Z,102827.54
2019-03-21T10:50:14.562Z,102820.91
2019-03-21T10:52:47.116Z,102814.64
2019-03-21T10:55:19.179Z,102816.30
2019-03-21T10:57:51.801Z,102811.98
2019-03-21T11:00:23.898Z,102808.32
2019-03-21T11:02:56.071Z,102802.54
2019-03-21T11:05:29.380Z,102793.69
2019-03-21T11:08:01.541Z,102791.90
2019-03-21T11:10:33.544Z,102786.25
2019-03-21T11:13:06.490Z,102776.68
2019-03-21T11:15:38.499Z,102780.35
2019-03-21T11:18:10.691Z,102778.00
2019-03-21T11:20:42.805Z,102769.67
2019-03-21T11:23:15.038Z,102762.75
2019-03-21T11:25:47.056Z,102775.27
2019-03-21T11:28:19.473Z,102763.87
2019-03-21T11:30:53.203Z,102758.28
2019-03-21T11:33:25.741Z,102763.28
2019-03-21T11:35:57.926Z,102751.00
2019-03-21T11:38:30.046Z,102754.51
2019-03-21T11:41:03.592Z,102743.75
2019-03-21T11:43:35.840Z,102747.49
2019-03-21T11:46:07.936Z,102737.71
2019-03-21T11:48:40.225Z,102732.38
2019-03-21T11:51:12.078Z,102737.83
2019-03-21T11:53:44.003Z,102745.33
2019-03-21T11:56:16.377Z,102736.95
2019-03-21T11:58:48.557Z,102722.76
2019-03-21T12:01:20.779Z,102739.63
2019-03-21T12:03:52.754Z,102747.73
2019-03-21T12:06:24.911Z,102738.85
2019-03-21T12:08:57.214Z,102744.63
2019-03-21T12:11:29.065Z,102742.86
2019-03-21T12:14:01.314Z,102746.39
2019-03-21T12:16:33.678Z,102735.21
2019-03-21T12:19:06.009Z,102730.38
2019-03-21T12:21:38.130Z,102730.35
2019-03-21T12:24:11.169Z,102726.77
2019-03-21T12:26:43.498Z,102721.44
2019-03-21T12:29:15.791Z,102716.56
2019-03-21T12:31:47.791Z,102724.99
2019-03-21T12:34:19.760Z,102713.48
2019-03-21T12:36:51.883Z,102717.83
2019-03-21T12:39:23.955Z,102699.77
2019-03-21T12:41:56.113Z,102707.34
2019-03-21T12:44:28.109Z,102705.94
2019-03-21T12:47:00.218Z,102711.66
2019-03-21T12:49:33.562Z,102711.46
2019-03-21T12:52:05.966Z,102703.58
2019-03-21T12:54:38.320Z,102707.51
2019-03-21T12:57:10.386Z,102698.38
2019-03-21T12:59:43.758Z,102696.61
2019-03-21T13:02:15.646Z,102700.16
2019-03-21T13:04:47.610Z,102694.41
2019-03-21T13:07:20.454Z,102693.05
2019-03-21T13:09:52.557Z,102697.02
2019-03-21T13:12:24.736Z,102688.00
2019-03-21T13:14:56.986Z,102692.78
2019-03-21T13:17:29.222Z,102691.85
2019-03-21T13:20:01.288Z,102694.58
2019-03-21T13:22:33.488Z,102689.16
2019-03-21T13:25:05.603Z,102688.34
2019-03-21T13:27:37.667Z,102693.03
2019-03-21T13:30:10.852Z,102678.95
2019-03-21T13:32:43.085Z,102679.08
2019-03-21T13:35:15.338Z,102679.14
2019-03-21T13:37:47.991Z,102679.14
2019-03-21T13:40:19.946Z,102668.92
2019-03-21T13:42:53.204Z,102671.48
2019-03-21T13:45:25.240Z,102673.28
2019-03-21T13:47:57.448Z,102664.88
2019-03-21T13:50:29.806Z,102670.66
2019-03-21T13:53:05.195Z,102672.41
2019-03-21T13:55:35.516Z,102672.48
2019-03-21T13:58:07.464Z,102665.64
2019-03-21T14:00:41.066Z,102659.05
2019-03-21T14:03:24.373Z,102671.84
2019-03-21T14:05:47.100Z,102670.87
2019-03-21T14:08:19.064Z,102668.03
2019-03-21T14:10:51.302Z,102665.44
2019-03-21T14:13:23.239Z,102660.26
2019-03-21T14:15:57.802Z,102639.55
2019-03-21T14:18:29.059Z,102662.60
2019-03-21T14:21:01.062Z,102658.67
2019-03-21T14:23:42.736Z,102664.35
2019-03-21T14:26:08.341Z,102665.62
2019-03-21T14:28:40.391Z,102664.72
2019-03-21T14:31:12.642Z,102662.97
2019-03-21T14:33:44.746Z,102664.83
2019-03-21T14:36:16.907Z,102656.87
2019-03-21T14:38:48.991Z,102637.84
2019-03-21T14:41:21.148Z,102643.63
2019-03-21T14:43:53.242Z,102651.84
2019-03-21T14:46:25.279Z,102646.53
2019-03-21T14:48:59.744Z,102626.57
2019-03-21T14:51:31.972Z,102626.57
2019-03-21T14:54:04.061Z,102636.41
2019-03-21T14:56:36.120Z,102618.62
2019-03-21T14:59:08.087Z,102633.66
2019-03-21T15:01:40.877Z,102633.66
2019-03-21T15:04:13.048Z,102629.03
2019-03-21T15:06:45.144Z,102630.36
2019-03-21T15:09:17.108Z,102630.36
2019-03-21T15:11:49.348Z,102628.56
2019-03-21T15:14:21.583Z,102627.67
2019-03-21T15:16:53.881Z,102631.12
2019-03-21T15:19:26.342Z,102630.11
2019-03-21T15:21:58.523Z,102642.40
2019-03-21T15:24:30.468Z,102626.09
2019-03-21T15:27:02.510Z,102626.09
2019-03-21T15:29:35.506Z,102636.30
2019-03-21T15:32:08.347Z,102637.20
2019-03-21T15:34:40.318Z,102596.41
2019-03-21T15:37:12.556Z,102605.02
2019-03-21T15:39:44.796Z,102639.69
2019-03-21T15:42:16.877Z,102654.50
2019-03-21T15:44:51.687Z,102657.89
2019-03-21T15:47:23.804Z,102657.89
2019-03-21T15:49:56.017Z,102651.78
2019-03-21T15:52:28.503Z,102654.29
2019-03-21T15:55:00.579Z,102655.12
2019-03-21T15:57:34.554Z,102660.33
2019-03-21T16:00:08.495Z,102653.30
2019-03-21T16:02:40.583Z,102655.88
2019-03-21T16:05:12.712Z,102647.95
2019-03-21T16:07:44.667Z,102666.83
2019-03-21T16:10:16.816Z,102673.73
2019-03-21T16:12:49.244Z,102659.11
2019-03-21T16:15:21.971Z,102662.14
2019-03-21T16:17:54.539Z,102667.11
2019-03-21T16:20:26.597Z,102664.05
2019-03-21T16:23:00.335Z,102660.08
2019-03-21T16:25:32.755Z,102657.84
2019-03-21T16:28:04.840Z,102672.56
2019-03-21T16:30:37.200Z,102677.84
2019-03-21T16:33:09.569Z,102669.89
2019-03-21T16:35:41.497Z,102673.45
2019-03-21T16:38:13.468Z,102672.97
2019-03-21T16:40:46.278Z,102682.85
2019-03-21T16:43:18.458Z,102671.80
2019-03-21T16:45:50.461Z,102671.38
2019-03-21T16:48:23.205Z,102670.04
2019-03-21T16:50:56.598Z,102666.58
2019-03-21T16:53:28.870Z,102667.00
2019-03-21T16:56:02.600Z,102670.45
2019-03-21T16:58:34.767Z,102668.13
2019-03-21T17:01:06.762Z,102656.67
2019-03-21T17:03:39.223Z,102640.39
2019-03-21T17:06:11.519Z,102637.75
2019-03-21T17:08:43.490Z,102643.87
2019-03-21T17:11:15.538Z,102646.02
2019-03-21T17:13:47.593Z,102647.75
2019-03-21T17:16:19.491Z,102638.95
2019-03-21T17:18:51.532Z,102644.16
2019-03-21T17:21:23.565Z,102630.03
2019-03-21T17:23:55.746Z,102643.23
2019-03-21T17:26:27.892Z,102648.45
2019-03-21T17:28:59.934Z,102648.52
2019-03-21T17:31:32.306Z,102640.52
2019-03-21T17:34:04.713Z,102647.19
2019-03-21T17:36:37.741Z,102653.65
2019-03-21T17:39:10.471Z,102657.91
2019-03-21T17:41:43.405Z,102662.70
2019-03-21T17:44:15.665Z,102673.57
2019-03-21T17:46:47.752Z,102675.38
2019-03-21T17:49:19.606Z,102675.36
2019-03-21T17:51:51.495Z,102681.48
2019-03-21T17:54:23.636Z,102687.15
2019-03-21T17:56:55.965Z,102706.77
2019-03-21T17:59:28.370Z,102706.25
2019-03-21T18:02:00.465Z,102692.14
2019-03-21T18:04:35.667Z,102705.20
2019-03-21T18:07:06.629Z,102698.16
2019-03-21T18:09:39.003Z,102704.73
2019-03-21T18:12:11.336Z,102703.42
2019-03-21T18:14:43.725Z,102699.74
2019-03-21T18:17:15.878Z,102693.56
2019-03-21T18:19:48.105Z,102687.33
2019-03-21T18:22:20.143Z,102686.84
2019-03-21T18:24:53.999Z,102701.23
2019-03-21T18:27:26.447Z,102691.45
2019-03-21T18:29:58.857Z,102684.85
2019-03-21T18:32:30.979Z,102682.66
2019-03-21T18:35:03.378Z,102673.38
2019-03-21T18:37:35.685Z,102686.61
2019-03-21T18:40:10.092Z,102695.93
2019-03-21T18:42:42.437Z,102703.33
2019-03-21T18:45:14.945Z,102721.58
2019-03-21T18:47:47.853Z,102696.70
2019-03-21T18:50:19.925Z,102706.94
2019-03-21T18:52:52.571Z,102701.85
2019-03-21T18:55:24.785Z,102694.06
2019-03-21T18:57:56.915Z,102697.28
2019-03-21T19:00:29.204Z,102686.65
2019-03-21T19:03:01.721Z,102683.16
2019-03-21T19:05:33.919Z,102680.83
2019-03-21T19:08:07.072Z,102687.84
2019-03-21T19:10:39.396Z,102693.20
2019-03-21T19:13:11.672Z,102706.53
2019-03-21T19:15:43.496Z,102704.48
2019-03-21T19:18:15.844Z,102699.98
2019-03-21T19:20:47.931Z,102698.62
2019-03-21T19:23:20.454Z,102692.95
2019-03-21T19:25:52.588Z,102696.69
2019-03-21T19:28:24.739Z,102706.98
2019-03-21T19:30:56.828Z,102708.98
2019-03-21T19:33:28.960Z,102703.30
2019-03-21T19:36:01.203Z,102706.80
2019-03-21T19:38:33.808Z,102719.50
2019-03-21T19:41:06.348Z,102706.40
2019-03-21T19:43:38.508Z,102703.77
2019-03-21T19:46:10.608Z,102706.84
2019-03-21T19:48:50.213Z,102704.47
2019-03-21T19:51:16.672Z,102713.28
2019-03-21T19:53:48.886Z,102711.98
2019-03-21T19:56:21.044Z,102716.20
2019-03-21T19:58:53.239Z,102712.38
2019-03-21T20:01:25.347Z,102704.47
2019-03-21T20:03:57.335Z,102711.02
2019-03-21T20:06:33.938Z,102699.80
2019-03-21T20:09:07.676Z,102701.30
2019-03-21T20:11:41.636Z,102699.41
2019-03-21T20:14:14.003Z,102685.41
2019-03-21T20:16:46.291Z,102680.47
2019-03-21T20:19:19.240Z,102678.36
2019-03-21T20:21:51.379Z,102677.56
2019-03-21T20:24:23.552Z,102678.42
2019-03-21T20:26:55.923Z,102683.61
2019-03-21T20:29:28.997Z,102676.59
2019-03-21T20:32:01.156Z,102694.66
2019-03-21T20:34:33.849Z,102680.18
2019-03-21T20:37:05.939Z,102679.28
2019-03-21T20:39:38.100Z,102677.89
2019-03-21T20:42:10.199Z,102685.34
2019-03-21T20:44:42.244Z,102688.97
2019-03-21T20:47:14.335Z,102690.05
2019-03-21T20:49:46.282Z,102688.73
2019-03-21T20:52:18.368Z,102685.03
2019-03-21T20:54:50.797Z,102688.20
2019-03-21T20:57:23.329Z,102684.35
2019-03-21T20:59:55.523Z,102685.22
2019-03-21T21:02:27.677Z,102682.13
2019-03-21T21:04:59.996Z,102682.58
2019-03-21T21:07:32.199Z,102683.03
2019-03-21T21:10:04.790Z,102683.89
2019-03-21T21:12:36.991Z,102677.30
2019-03-21T21:15:09.348Z,102679.97
2019-03-21T21:17:43.307Z,102676.86
2019-03-21T21:20:16.928Z,102674.22
2019-03-21T21:22:48.991Z,102675.02
2019-03-21T21:25:20.986Z,102674.09
2019-03-21T21:27:54.584Z,102668.95
2019-03-21T21:30:26.755Z,102679.41
2019-03-21T21:32:59.252Z,102682.31
2019-03-21T21:35:31.351Z,102685.06
2019-03-21T21:38:05.391Z,102681.58
2019-03-21T21:40:37.455Z,102678.48
2019-03-21T21:43:09.723Z,102676.78
2019-03-21T21:45:41.828Z,102679.89
2019-03-21T21:48:13.712Z,102676.78
2019-03-21T21:50:46.753Z,102675.45
2019-03-21T21:53:18.957Z,102685.56
2019-03-21T21:55:51.090Z,102682.00
2019-03-21T21:58:23.207Z,102683.77
2019-03-21T22:00:55.311Z,102682.27
2019-03-21T22:03:27.609Z,102685.03
2019-03-21T22:06:00.251Z,102678.89
2019-03-21T22:08:32.428Z,102677.04
2019-03-21T22:11:05.817Z,102683.19
2019-03-21T22:13:38.412Z,102668.69
2019-03-21T22:16:10.735Z,102674.80
2019-03-21T22:18:43.099Z,102672.22
2019-03-21T22:21:15.559Z,102680.13
2019-03-21T22:23:48.057Z,102677.44
2019-03-21T22:26:29.180Z,102674.64
2019-03-21T22:28:53.991Z,102672.91
2019-03-21T22:31:25.929Z,102665.78
2019-03-21T22:33:58.298Z,102672.92
2019-03-21T22:36:30.796Z,102666.28
2019-03-21T22:39:03.150Z,102671.50
2019-03-21T22:41:37.014Z,102669.31
2019-03-21T22:44:09.705Z,102668.44
2019-03-21T22:46:42.466Z,102668.39
2019-03-21T22:49:14.529Z,102656.53
2019-03-21T22:51:46.533Z,102651.65
2019-03-21T22:54:18.516Z,102644.55
2019-03-21T22:56:50.763Z,102648.00
2019-03-21T22:59:23.118Z,102658.44
2019-03-21T23:01:55.282Z,102663.27
2019-03-21T23:04:27.704Z,102668.65
2019-03-21T23:06:59.661Z,102663.31
2019-03-21T23:09:32.254Z,102667.27
2019-03-21T23:12:04.722Z,102664.63
2019-03-21T23:14:36.789Z,102665.14
2019-03-21T23:17:08.827Z,102651.43
2019-03-21T23:19:40.820Z,102651.06
2019-03-21T23:22:12.912Z,102645.88
2019-03-21T23:24:44.794Z,102646.69
2019-03-21T23:27:16.943Z,102643.63
2019-03-21T23:29:49.339Z,102647.59
2019-03-21T23:32:21.437Z,102647.50
2019-03-21T23:34:53.584Z,102657.13
2019-03-21T23:37:26.253Z,102660.73
2019-03-21T23:39:58.602Z,102656.73
2019-03-21T23:42:30.956Z,102663.27
2019-03-21T23:45:03.175Z,102653.14
2019-03-21T23:47:35.373Z,102645.99
2019-03-21T23:50:08.271Z,102639.06
2019-03-21T23:52:40.525Z,102651.23
2019-03-21T23:55:12.939Z,102642.44
2019-03-21T23:57:45.733Z,102644.20
